createdAt,value
2017-06-05T20:46:42.757Z,35.38
2017-06-05T20:47:44.408Z,35.19
2017-06-05T20:48:46.098Z,35.48
2017-06-05T20:49:47.753Z,35.46
2017-06-05T20:50:49.417Z,35.94
2017-06-05T20:51:51.111Z,36.33
2017-06-05T20:52:52.828Z,36.43
2017-06-05T20:53:54.463Z,35.58
2017-06-05T20:54:56.124Z,35.58
2017-06-05T20:55:57.768Z,35.58
2017-06-05T20:56:59.491Z,35.19
2017-06-05T20:58:01.073Z,35.58
2017-06-05T20:59:02.740Z,35.58
2017-06-05T21:00:04.360Z,35.38
2017-06-05T21:01:05.985Z,35.28
2017-06-05T21:02:07.640Z,35.48
2017-06-05T21:03:09.332Z,35.48
2017-06-05T21:04:10.975Z,35.48
2017-06-05T21:05:12.657Z,35.58
2017-06-05T21:06:14.334Z,35.67
2017-06-05T21:07:16.019Z,35.38
2017-06-05T21:08:17.713Z,35.86
2017-06-05T21:09:19.415Z,35.48
2017-06-05T21:10:21.066Z,35.48
2017-06-05T21:11:22.802Z,35.77
2017-06-05T21:12:24.500Z,36.15
2017-06-05T21:13:26.155Z,36.35
2017-06-05T21:14:27.842Z,36.35
2017-06-05T21:15:29.497Z,36.63
2017-06-05T21:16:31.185Z,36.54
2017-06-05T21:17:32.910Z,36.63
2017-06-05T21:18:34.626Z,36.91
2017-06-05T21:19:36.342Z,37.29
2017-06-05T21:20:37.956Z,37.39
2017-06-05T21:21:39.602Z,37.77
2017-06-05T21:22:41.170Z,37.58
2017-06-05T21:23:43.401Z,37.48
2017-06-05T21:24:45.120Z,37.58
2017-06-05T21:25:46.762Z,37.29
2017-06-05T21:26:48.502Z,37.87
2017-06-05T21:27:50.137Z,37.87
2017-06-05T21:28:51.773Z,37.10
2017-06-05T21:29:53.421Z,37.10
2017-06-05T21:30:55.036Z,37.39
2017-06-05T21:31:56.730Z,37.39
2017-06-05T21:33:38.209Z,37.48
2017-06-05T21:34:39.817Z,37.87
2017-06-05T21:35:41.446Z,37.77
2017-06-05T21:36:43.109Z,37.29
2017-06-05T21:37:44.703Z,37.19
2017-06-05T21:38:46.380Z,37.39
2017-06-05T21:39:48.007Z,37.58
2017-06-05T21:40:49.608Z,37.39
2017-06-05T21:41:51.203Z,37.87
2017-06-05T21:42:52.802Z,37.58
2017-06-05T21:43:54.479Z,37.39
2017-06-05T21:44:56.108Z,37.29
2017-06-05T21:45:57.745Z,37.87
2017-06-05T21:46:59.364Z,37.87
2017-06-05T21:48:01.002Z,38.06
2017-06-05T21:49:02.660Z,37.87
2017-06-05T21:50:04.303Z,38.26
2017-06-05T21:51:05.958Z,38.16
2017-06-05T21:52:07.597Z,37.87
2017-06-05T21:53:09.198Z,37.87
2017-06-05T21:54:10.842Z,38.26
2017-06-05T21:55:12.444Z,38.35
2017-06-05T21:56:14.042Z,38.26
2017-06-05T21:57:15.710Z,38.26
2017-06-05T21:58:17.290Z,38.16
2017-06-05T21:59:18.943Z,38.26
2017-06-05T22:00:20.571Z,38.43
2017-06-05T22:01:22.204Z,38.43
2017-06-05T22:02:23.873Z,38.53
2017-06-05T22:03:25.484Z,38.43
2017-06-05T22:04:27.145Z,38.24
2017-06-05T22:05:28.774Z,38.33
2017-06-05T22:06:30.403Z,38.64
2017-06-05T22:07:32.185Z,38.24
2017-06-05T22:08:33.888Z,38.53
2017-06-05T22:09:36.527Z,38.93
2017-06-05T22:10:38.219Z,38.26
2017-06-05T22:11:39.886Z,38.93
2017-06-05T22:12:41.475Z,38.26
2017-06-05T22:13:43.213Z,38.16
2017-06-05T22:14:45.079Z,38.91
2017-06-05T22:15:48.006Z,37.87
2017-06-05T22:16:49.659Z,37.87
2017-06-05T22:17:51.275Z,37.95
2017-06-05T22:18:52.940Z,38.33
2017-06-05T22:19:54.600Z,38.81
2017-06-05T22:20:56.277Z,38.33
2017-06-05T22:21:57.918Z,38.43
2017-06-05T22:22:59.542Z,39.39
2017-06-05T22:24:40.650Z,38.89
2017-06-05T22:26:21.781Z,38.91
2017-06-05T22:27:23.392Z,38.81
2017-06-05T22:28:25.032Z,38.99
2017-06-05T22:29:26.744Z,38.89
2017-06-05T22:30:28.432Z,39.18
2017-06-05T22:31:30.128Z,39.47
2017-06-05T22:32:31.777Z,38.99
2017-06-05T22:33:33.482Z,39.47
2017-06-05T22:34:35.211Z,39.86
2017-06-05T22:35:36.881Z,38.99
2017-06-05T22:36:38.546Z,38.89
2017-06-05T22:37:40.251Z,38.89
2017-06-05T22:38:41.916Z,38.99
2017-06-05T22:39:43.624Z,39.16
2017-06-05T22:40:45.346Z,39.54
2017-06-05T22:41:46.999Z,39.64
2017-06-05T22:42:48.614Z,39.86
2017-06-05T22:43:50.208Z,39.64
2017-06-05T22:44:51.841Z,39.95
2017-06-05T22:45:53.535Z,39.36
2017-06-05T22:46:55.163Z,39.64
2017-06-05T22:47:56.798Z,39.54
2017-06-05T22:48:58.410Z,39.93
2017-06-05T22:50:00.019Z,40.31
2017-06-05T22:51:01.666Z,40.68
2017-06-05T22:52:03.281Z,41.55
2017-06-05T22:53:04.954Z,41.35
2017-06-05T22:54:06.679Z,41.55
2017-06-05T22:55:08.309Z,41.55
2017-06-05T22:56:09.956Z,41.45
2017-06-05T22:57:11.568Z,41.28
2017-06-05T22:58:13.215Z,40.97
2017-06-05T22:59:14.870Z,41.06
2017-06-05T23:00:16.511Z,41.35
2017-06-05T23:01:18.142Z,41.56
2017-06-05T23:02:19.756Z,40.78
2017-06-05T23:03:21.405Z,40.58
2017-06-05T23:04:23.075Z,40.89
2017-06-05T23:05:24.690Z,40.97
2017-06-05T23:06:26.335Z,41.35
2017-06-05T23:07:27.969Z,41.83
2017-06-05T23:08:29.613Z,41.55
2017-06-05T23:09:31.574Z,41.64
2017-06-05T23:10:33.243Z,41.26
2017-06-05T23:11:34.878Z,41.45
2017-06-05T23:12:36.511Z,41.26
2017-06-05T23:13:38.139Z,40.58
2017-06-05T23:14:39.850Z,40.80
2017-06-05T23:16:21.024Z,41.55
2017-06-05T23:18:02.703Z,42.22
2017-06-05T23:19:04.323Z,42.10
2017-06-05T23:20:05.987Z,42.30
2017-06-05T23:21:07.599Z,42.39
2017-06-05T23:22:09.188Z,42.10
2017-06-05T23:23:10.823Z,42.87
2017-06-05T23:24:12.463Z,42.68
2017-06-05T23:25:14.101Z,42.97
2017-06-05T23:26:15.697Z,43.07
2017-06-05T23:27:17.361Z,43.26
2017-06-05T23:28:18.959Z,43.26
2017-06-05T23:29:20.594Z,43.26
2017-06-05T23:30:22.177Z,43.26
2017-06-05T23:31:23.774Z,43.26
2017-06-05T23:32:25.427Z,43.16
2017-06-05T23:33:27.039Z,43.33
2017-06-05T23:34:28.681Z,43.26
2017-06-05T23:35:30.319Z,42.97
2017-06-05T23:36:31.885Z,43.07
2017-06-05T23:37:33.515Z,43.16
2017-06-05T23:38:35.127Z,43.07
2017-06-05T23:39:36.780Z,43.26
2017-06-05T23:40:38.391Z,43.07
2017-06-05T23:41:40.016Z,43.23
2017-06-05T23:42:41.626Z,43.71
2017-06-05T23:43:43.241Z,43.74
2017-06-05T23:44:44.918Z,43.91
2017-06-05T23:45:46.545Z,44.10
2017-06-05T23:46:48.143Z,44.10
2017-06-05T23:47:49.771Z,44.12
2017-06-05T23:48:52.227Z,44.10
2017-06-05T23:49:53.903Z,44.10
2017-06-05T23:50:55.495Z,44.22
2017-06-05T23:51:57.101Z,44.10
2017-06-05T23:52:58.744Z,44.48
2017-06-05T23:54:00.343Z,44.58
2017-06-05T23:55:02.031Z,44.29
2017-06-05T23:56:03.665Z,44.70
2017-06-05T23:57:05.302Z,44.68
2017-06-05T23:58:06.942Z,44.29
2017-06-05T23:59:08.584Z,44.10
